createdAt,value
2023-01-11T00:01:05.147Z,78.34
2023-01-11T00:03:32.902Z,77.56
2023-01-11T00:06:00.336Z,78.10
2023-01-11T00:08:27.869Z,77.92
2023-01-11T00:10:55.453Z,77.79
2023-01-11T00:13:22.928Z,79.43
2023-01-11T00:15:50.258Z,79.10
2023-01-11T00:18:17.860Z,79.08
2023-01-11T00:20:45.226Z,76.17
2023-01-11T00:23:12.558Z,76.57
2023-01-11T00:25:40.298Z,77.55
2023-01-11T00:28:07.651Z,77.88
2023-01-11T00:30:35.842Z,75.23
2023-01-11T00:33:03.660Z,76.07
2023-01-11T00:35:32.067Z,76.42
2023-01-11T00:37:59.411Z,77.01
2023-01-11T00:40:27.212Z,74.78
2023-01-11T00:43:13.084Z,75.71
2023-01-11T00:46:19.947Z,74.60
2023-01-11T00:48:47.271Z,73.89
2023-01-11T00:51:14.860Z,77.74
2023-01-11T00:53:42.181Z,75.43
2023-01-11T00:56:09.463Z,74.17
2023-01-11T00:58:37.071Z,77.25
2023-01-11T01:01:07.988Z,79.23
2023-01-11T01:03:35.258Z,78.13
2023-01-11T01:06:02.856Z,77.78
2023-01-11T01:08:30.243Z,78.57
2023-01-11T01:10:57.569Z,78.58
2023-01-11T01:13:43.592Z,78.64
2023-01-11T01:16:10.936Z,78.45
2023-01-11T01:18:38.571Z,79.86
2023-01-11T01:21:05.981Z,79.99
2023-01-11T01:23:33.388Z,79.25
2023-01-11T01:26:03.783Z,79.02
2023-01-11T01:28:31.103Z,79.32
2023-01-11T01:30:58.481Z,79.99
2023-01-11T01:33:26.001Z,77.49
2023-01-11T01:35:53.269Z,79.26
2023-01-11T01:38:20.629Z,79.22
2023-01-11T01:40:48.423Z,78.98
2023-01-11T01:43:17.207Z,78.73
2023-01-11T01:45:44.597Z,78.59
2023-01-11T01:48:16.476Z,79.73
2023-01-11T01:50:46.698Z,80.28
2023-01-11T01:53:21.644Z,79.55
2023-01-11T01:55:51.280Z,79.50
2023-01-11T01:58:20.173Z,79.50
2023-01-11T02:00:47.457Z,80.67
2023-01-11T02:03:22.780Z,80.04
2023-01-11T02:05:50.331Z,80.15
2023-01-11T02:08:21.701Z,78.54
2023-01-11T02:10:49.609Z,79.41
2023-01-11T02:13:17.198Z,76.88
2023-01-11T02:15:44.573Z,76.53
2023-01-11T02:18:12.767Z,78.80
2023-01-11T02:21:02.022Z,78.43
2023-01-11T02:23:52.541Z,80.39
2023-01-11T02:26:41.811Z,80.14
2023-01-11T02:29:14.087Z,80.31
2023-01-11T02:31:46.973Z,80.85
2023-01-11T02:34:37.854Z,80.81
2023-01-11T02:37:29.147Z,79.86
2023-01-11T02:40:09.833Z,81.14
2023-01-11T02:43:06.181Z,81.51
2023-01-11T02:45:38.476Z,80.56
2023-01-11T02:48:24.328Z,79.67
2023-01-11T02:50:59.172Z,78.58
2023-01-11T02:53:44.508Z,80.03
2023-01-11T02:56:13.780Z,80.70
2023-01-11T02:58:43.474Z,81.19
2023-01-11T03:01:10.727Z,80.40
2023-01-11T03:03:38.112Z,81.03
2023-01-11T03:06:16.979Z,81.41
2023-01-11T03:08:55.980Z,81.16
2023-01-11T03:11:49.304Z,80.05
2023-01-11T03:14:52.012Z,81.67
2023-01-11T03:17:35.295Z,82.23
2023-01-11T03:20:13.970Z,81.32
2023-01-11T03:22:44.417Z,82.22
2023-01-11T03:25:19.482Z,81.56
2023-01-11T03:27:56.029Z,82.83
2023-01-11T03:30:44.854Z,80.79
2023-01-11T03:33:22.703Z,81.04
2023-01-11T03:35:56.926Z,80.44
2023-01-11T03:38:40.396Z,79.40
2023-01-11T03:41:13.737Z,79.18
2023-01-11T03:43:41.322Z,77.50
2023-01-11T03:46:13.464Z,77.33
2023-01-11T03:49:02.835Z,79.73
2023-01-11T03:51:31.803Z,78.23
2023-01-11T03:54:00.751Z,79.01
2023-01-11T03:56:32.018Z,78.98
2023-01-11T03:58:59.705Z,79.95
2023-01-11T04:01:27.075Z,77.94
2023-01-11T04:03:54.687Z,78.67
2023-01-11T04:06:22.099Z,79.31
2023-01-11T04:08:49.430Z,79.55
2023-01-11T04:11:17.133Z,79.63
2023-01-11T04:13:44.415Z,79.72
2023-01-11T04:16:11.748Z,78.65
2023-01-11T04:18:39.377Z,78.27
2023-01-11T04:21:06.808Z,78.54
2023-01-11T04:23:34.106Z,77.01
2023-01-11T04:26:01.712Z,77.27
2023-01-11T04:28:28.966Z,75.47
2023-01-11T04:30:56.273Z,76.69
2023-01-11T04:33:23.836Z,77.65
2023-01-11T04:35:51.238Z,79.61
2023-01-11T04:38:18.940Z,76.98
2023-01-11T04:40:47.843Z,75.15
2023-01-11T04:43:15.164Z,75.18
2023-01-11T04:45:42.540Z,75.71
2023-01-11T04:48:10.155Z,77.90
2023-01-11T04:50:37.692Z,75.32
2023-01-11T04:53:05.020Z,78.24
2023-01-11T04:55:32.650Z,76.40
2023-01-11T04:57:59.990Z,78.31
2023-01-11T05:00:27.372Z,78.22
2023-01-11T05:02:55.232Z,77.55
2023-01-11T05:05:22.533Z,78.88
2023-01-11T05:07:49.921Z,79.39
2023-01-11T05:10:20.087Z,80.02
2023-01-11T05:12:48.220Z,80.28
2023-01-11T05:15:15.606Z,79.08
2023-01-11T05:17:43.262Z,79.63
2023-01-11T05:20:11.210Z,78.19
2023-01-11T05:22:38.583Z,77.01
2023-01-11T05:25:06.690Z,77.56
2023-01-11T05:27:34.153Z,77.48
2023-01-11T05:30:01.515Z,78.97
2023-01-11T05:32:29.545Z,78.34
2023-01-11T05:34:56.927Z,77.96
2023-01-11T05:37:24.265Z,75.59
2023-01-11T05:39:51.867Z,78.50
2023-01-11T05:42:19.199Z,80.52
2023-01-11T05:45:05.473Z,78.55
2023-01-11T05:47:33.135Z,77.52
2023-01-11T05:50:00.493Z,76.31
2023-01-11T05:52:28.045Z,77.66
2023-01-11T05:54:55.654Z,77.10
2023-01-11T05:57:22.976Z,76.56
2023-01-11T05:59:50.420Z,79.03
2023-01-11T06:02:18.178Z,77.46
2023-01-11T06:04:45.842Z,78.44
2023-01-11T06:07:13.301Z,79.49
2023-01-11T06:09:40.629Z,77.02
2023-01-11T06:12:08.254Z,77.34
2023-01-11T06:14:37.972Z,77.31
2023-01-11T06:17:05.601Z,77.32
2023-01-11T06:19:33.201Z,79.69
2023-01-11T06:22:00.537Z,77.46
2023-01-11T06:24:27.910Z,76.82
2023-01-11T06:26:55.596Z,75.89
2023-01-11T06:29:23.030Z,75.84
2023-01-11T06:31:50.386Z,74.10
2023-01-11T06:34:17.987Z,74.02
2023-01-11T06:36:45.328Z,74.08
2023-01-11T06:39:12.712Z,72.01
2023-01-11T06:41:40.374Z,71.56
2023-01-11T06:44:07.776Z,71.31
2023-01-11T06:46:35.128Z,73.60
2023-01-11T06:49:03.236Z,74.21
2023-01-11T06:51:30.580Z,72.83
2023-01-11T06:53:58.089Z,73.14
2023-01-11T06:56:25.715Z,72.28
2023-01-11T06:58:53.083Z,73.72
2023-01-11T07:01:21.136Z,71.70
2023-01-11T07:03:49.387Z,70.90
2023-01-11T07:06:16.807Z,73.46
2023-01-11T07:08:44.175Z,71.32
2023-01-11T07:11:12.219Z,70.38
2023-01-11T07:13:39.661Z,71.44
2023-01-11T07:16:07.262Z,72.00
2023-01-11T07:18:34.999Z,71.77
2023-01-11T07:21:02.510Z,71.17
2023-01-11T07:23:29.872Z,71.93
2023-01-11T07:25:57.673Z,74.46
2023-01-11T07:28:25.101Z,72.24
2023-01-11T07:30:58.796Z,72.04
2023-01-11T07:33:26.957Z,70.49
2023-01-11T07:35:54.345Z,71.75
2023-01-11T07:38:21.811Z,71.46
2023-01-11T07:40:49.488Z,70.74
2023-01-11T07:43:19.002Z,70.92
2023-01-11T07:45:49.303Z,69.79
2023-01-11T07:48:21.226Z,69.12
2023-01-11T07:50:49.061Z,69.94
2023-01-11T07:53:16.936Z,70.06
2023-01-11T07:55:44.409Z,70.36
2023-01-11T07:58:12.645Z,71.25
2023-01-11T08:00:43.300Z,71.39
2023-01-11T08:03:11.241Z,71.56
2023-01-11T08:05:38.865Z,72.18
2023-01-11T08:08:06.571Z,69.78
2023-01-11T08:10:34.337Z,72.11
2023-01-11T08:13:20.549Z,69.84
2023-01-11T08:15:48.226Z,71.13
2023-01-11T08:18:17.222Z,70.54
2023-01-11T08:20:45.706Z,69.52
2023-01-11T08:23:13.452Z,70.31
2023-01-11T08:25:40.891Z,69.93
2023-01-11T08:28:08.396Z,69.64
2023-01-11T08:30:36.409Z,69.86
2023-01-11T08:33:06.888Z,68.51
2023-01-11T08:35:37.925Z,68.37
2023-01-11T08:38:07.116Z,67.37
2023-01-11T08:40:34.503Z,65.86
2023-01-11T08:43:02.705Z,67.48
2023-01-11T08:45:30.319Z,66.92
2023-01-11T08:47:59.414Z,67.91
2023-01-11T08:50:26.816Z,68.88
2023-01-11T08:52:54.474Z,69.03
2023-01-11T08:55:21.804Z,68.24
2023-01-11T08:57:49.852Z,67.43
2023-01-11T09:00:19.280Z,66.72
2023-01-11T09:02:46.677Z,66.24
2023-01-11T09:05:14.678Z,67.16
2023-01-11T09:07:43.336Z,67.51
2023-01-11T09:10:11.145Z,65.22
2023-01-11T09:12:38.531Z,65.07
2023-01-11T09:15:06.620Z,64.22
2023-01-11T09:17:34.226Z,64.68
2023-01-11T09:20:01.586Z,65.56
2023-01-11T09:22:29.225Z,67.71
2023-01-11T09:24:59.061Z,68.21
2023-01-11T09:27:26.602Z,66.58
2023-01-11T09:29:54.230Z,66.27
2023-01-11T09:32:21.656Z,66.23
2023-01-11T09:34:49.678Z,66.74
2023-01-11T09:37:17.528Z,65.77
2023-01-11T09:39:45.453Z,63.94
2023-01-11T09:42:34.987Z,66.29
2023-01-11T09:45:11.840Z,67.50
2023-01-11T09:48:11.702Z,65.95
2023-01-11T09:50:43.297Z,64.05
2023-01-11T09:53:28.271Z,64.49
2023-01-11T09:55:58.197Z,65.38
2023-01-11T09:58:56.542Z,67.43
2023-01-11T10:01:50.072Z,68.05
2023-01-11T10:05:00.887Z,65.45
2023-01-11T10:18:23.173Z,65.09
2023-01-11T10:18:41.725Z,64.68
2023-01-11T10:19:48.093Z,65.59
2023-01-11T10:22:19.629Z,66.61
2023-01-11T10:25:03.481Z,65.88
2023-01-11T10:27:43.144Z,65.98
2023-01-11T10:30:34.202Z,67.13
2023-01-11T10:33:18.626Z,64.74
2023-01-11T10:36:21.419Z,66.53
2023-01-11T10:39:03.312Z,66.67
2023-01-11T10:41:38.811Z,66.65
2023-01-11T10:44:10.005Z,66.28
2023-01-11T10:46:39.824Z,64.49
2023-01-11T10:49:26.116Z,65.89
2023-01-11T10:51:53.767Z,64.42
2023-01-11T10:54:24.213Z,64.88
2023-01-11T10:57:05.625Z,64.69
2023-01-11T11:00:05.247Z,63.47
2023-01-11T11:02:53.500Z,64.60
2023-01-11T11:05:38.853Z,64.72
2023-01-11T11:08:26.373Z,64.12
2023-01-11T11:10:56.961Z,63.04
2023-01-11T11:13:34.748Z,62.63
2023-01-11T11:16:23.943Z,64.21
2023-01-11T11:18:51.758Z,62.62
2023-01-11T11:21:33.750Z,60.05
2023-01-11T11:24:08.366Z,62.23
2023-01-11T11:26:41.289Z,61.40
2023-01-11T11:29:10.351Z,61.49
2023-01-11T11:31:42.192Z,59.15
2023-01-11T11:34:18.059Z,59.78
2023-01-11T11:36:55.387Z,60.54
2023-01-11T11:39:28.364Z,59.19
2023-01-11T11:41:57.855Z,58.74
2023-01-11T11:44:27.096Z,60.08
2023-01-11T11:47:02.303Z,60.67
2023-01-11T11:49:31.676Z,58.66
2023-01-11T11:52:00.477Z,58.75
2023-01-11T11:54:34.944Z,57.23
2023-01-11T11:57:38.912Z,57.03
2023-01-11T12:00:09.270Z,57.04
2023-01-11T12:02:37.208Z,56.24
2023-01-11T12:05:06.561Z,56.41
2023-01-11T12:07:43.113Z,55.83
2023-01-11T12:10:19.577Z,56.46
2023-01-11T12:12:52.343Z,56.48
2023-01-11T12:15:28.828Z,56.29
2023-01-11T12:18:15.412Z,57.81
2023-01-11T12:20:44.712Z,57.17
2023-01-11T12:23:18.966Z,55.47
2023-01-11T12:26:12.970Z,55.41
2023-01-11T12:28:55.573Z,54.36
2023-01-11T12:31:34.970Z,55.34
2023-01-11T12:34:34.424Z,55.48
2023-01-11T12:37:22.910Z,56.13
2023-01-11T12:39:55.752Z,56.13
2023-01-11T12:42:52.307Z,57.67
2023-01-11T12:45:34.318Z,56.71
2023-01-11T12:48:20.487Z,54.99
2023-01-11T12:51:13.513Z,56.64
2023-01-11T12:53:44.092Z,56.61
2023-01-11T12:56:17.344Z,56.24
2023-01-11T12:58:58.683Z,55.89
2023-01-11T13:01:48.609Z,56.15
2023-01-11T13:04:44.010Z,56.32
2023-01-11T13:07:20.676Z,57.64
2023-01-11T13:10:15.563Z,55.73
2023-01-11T13:12:49.358Z,57.77
2023-01-11T13:15:35.686Z,57.27
2023-01-11T13:18:22.023Z,55.73
2023-01-11T13:21:02.185Z,55.71
2023-01-11T13:23:46.431Z,54.61
2023-01-11T13:26:36.656Z,54.17
2023-01-11T13:29:27.563Z,53.82
2023-01-11T13:31:55.542Z,54.00
2023-01-11T13:34:53.465Z,56.26
2023-01-11T13:37:53.721Z,55.21
2023-01-11T13:40:34.974Z,55.74
2023-01-11T13:43:10.040Z,54.82
2023-01-11T13:45:40.413Z,55.69
2023-01-11T13:48:55.493Z,55.62
2023-01-11T13:51:27.911Z,54.52
2023-01-11T13:54:00.878Z,54.97
2023-01-11T13:56:31.726Z,55.20
2023-01-11T13:59:03.711Z,55.71
2023-01-11T14:01:54.045Z,55.23
2023-01-11T14:04:32.944Z,54.43
2023-01-11T14:07:26.233Z,54.62
2023-01-11T14:10:26.463Z,55.27
2023-01-11T14:13:53.073Z,55.16
2023-01-11T14:16:45.376Z,54.96
2023-01-11T14:19:27.785Z,54.87
2023-01-11T14:22:11.296Z,55.45
2023-01-11T14:24:40.635Z,54.54
2023-01-11T14:27:31.636Z,54.16
2023-01-11T14:30:04.541Z,53.99
2023-01-11T14:33:18.598Z,54.32
2023-01-11T14:35:52.802Z,54.85
2023-01-11T14:38:39.510Z,55.15
2023-01-11T14:41:25.700Z,55.44
2023-01-11T14:44:02.954Z,55.40
2023-01-11T14:47:08.851Z,55.39
2023-01-11T14:49:51.693Z,55.77
2023-01-11T14:52:38.535Z,56.29
2023-01-11T14:55:26.253Z,56.58
2023-01-11T14:57:56.445Z,57.00
2023-01-11T15:00:24.047Z,57.08
2023-01-11T15:02:51.990Z,57.39
2023-01-11T15:05:31.600Z,57.33
2023-01-11T15:08:14.157Z,57.75
2023-01-11T15:10:59.339Z,57.78
2023-01-11T15:13:44.669Z,58.03
2023-01-11T15:16:41.918Z,58.35
2023-01-11T15:19:23.520Z,58.47
2023-01-11T15:21:53.243Z,58.71
2023-01-11T15:24:22.164Z,58.76
2023-01-11T15:26:49.623Z,58.96
2023-01-11T15:29:26.463Z,59.15
2023-01-11T15:31:54.047Z,59.16
2023-01-11T15:34:31.039Z,58.91
2023-01-11T15:37:02.378Z,59.06
2023-01-11T15:39:45.198Z,59.31
2023-01-11T15:42:27.474Z,59.58
2023-01-11T15:45:22.370Z,59.65
2023-01-11T15:48:19.150Z,59.51
2023-01-11T15:50:49.282Z,60.03
2023-01-11T15:53:37.536Z,59.96
2023-01-11T15:56:15.477Z,60.28
2023-01-11T15:58:57.361Z,60.63
2023-01-11T16:01:28.600Z,60.74
2023-01-11T16:04:00.390Z,60.88
2023-01-11T16:06:37.205Z,61.04
2023-01-11T16:09:21.757Z,61.25
2023-01-11T16:12:07.362Z,61.24
2023-01-11T16:15:12.547Z,61.47
2023-01-11T16:17:40.465Z,61.68
2023-01-11T16:20:20.290Z,62.31
2023-01-11T16:22:56.713Z,61.87
2023-01-11T16:25:25.662Z,61.71
2023-01-11T16:27:57.430Z,61.67
2023-01-11T16:30:25.654Z,61.59
2023-01-11T16:32:53.167Z,61.77
2023-01-11T16:35:22.527Z,62.01
2023-01-11T16:37:51.866Z,62.02
2023-01-11T16:40:36.315Z,62.40
2023-01-11T16:43:19.447Z,62.44
2023-01-11T16:45:48.552Z,62.74
2023-01-11T16:48:20.651Z,62.67
2023-01-11T16:51:00.041Z,62.31
2023-01-11T16:53:28.634Z,62.51
2023-01-11T16:56:08.212Z,62.54
2023-01-11T16:58:37.161Z,62.67
2023-01-11T17:01:11.528Z,62.58
2023-01-11T17:03:53.361Z,62.74
2023-01-11T17:06:21.350Z,62.73
2023-01-11T17:08:50.773Z,62.42
2023-01-11T17:11:38.533Z,62.67
2023-01-11T17:14:13.651Z,63.00
2023-01-11T17:16:42.883Z,62.86
2023-01-11T17:19:19.029Z,62.93
2023-01-11T17:22:07.277Z,63.04
2023-01-11T17:24:39.835Z,63.50
2023-01-11T17:27:09.241Z,63.17
2023-01-11T17:29:40.092Z,62.70
2023-01-11T17:32:12.704Z,62.99
2023-01-11T17:34:40.332Z,63.01
2023-01-11T17:37:10.687Z,62.96
2023-01-11T17:39:44.124Z,62.81
2023-01-11T17:42:31.785Z,62.61
2023-01-11T17:45:14.311Z,62.67
2023-01-11T17:47:46.222Z,63.02
2023-01-11T17:50:19.623Z,63.27
2023-01-11T17:52:54.721Z,63.68
2023-01-11T17:55:24.357Z,63.51
2023-01-11T17:58:23.216Z,63.48
2023-01-11T18:01:20.514Z,63.85
2023-01-11T18:03:57.076Z,63.95
2023-01-11T18:06:41.302Z,63.68
2023-01-11T18:09:22.579Z,63.94
2023-01-11T18:11:50.646Z,63.57
2023-01-11T18:14:25.938Z,63.92
2023-01-11T18:17:02.192Z,63.92
2023-01-11T18:19:42.329Z,64.08
2023-01-11T18:22:29.284Z,64.26
2023-01-11T18:25:00.175Z,63.70
2023-01-11T18:27:29.374Z,64.07
2023-01-11T18:29:58.224Z,63.88
2023-01-11T18:32:25.574Z,64.18
2023-01-11T18:34:53.820Z,64.41
2023-01-11T18:37:21.523Z,65.03
2023-01-11T18:39:50.211Z,64.54
2023-01-11T18:42:19.639Z,64.38
2023-01-11T18:44:49.282Z,65.31
2023-01-11T18:47:24.860Z,64.12
2023-01-11T18:49:52.830Z,63.78
2023-01-11T18:52:21.215Z,64.67
2023-01-11T18:54:48.616Z,64.68
2023-01-11T18:57:16.252Z,65.06
2023-01-11T18:59:43.602Z,64.80
2023-01-11T19:02:23.247Z,64.87
2023-01-11T19:04:51.043Z,64.87
2023-01-11T19:07:18.531Z,64.94
2023-01-11T19:09:45.930Z,65.09
2023-01-11T19:12:13.607Z,64.73
2023-01-11T19:14:40.970Z,64.46
2023-01-11T19:17:09.229Z,65.13
2023-01-11T19:19:37.391Z,65.40
2023-01-11T19:22:05.151Z,65.58
2023-01-11T19:24:32.656Z,65.42
2023-01-11T19:27:00.395Z,65.41
2023-01-11T19:29:28.013Z,65.81
2023-01-11T19:31:58.386Z,65.34
2023-01-11T19:34:25.987Z,65.93
2023-01-11T19:36:53.387Z,65.46
2023-01-11T19:39:20.749Z,65.28
2023-01-11T19:41:54.889Z,65.38
2023-01-11T19:44:40.515Z,65.28
2023-01-11T19:47:12.077Z,64.92
2023-01-11T19:49:40.605Z,64.99
2023-01-11T19:52:18.812Z,65.14
2023-01-11T19:54:46.444Z,64.96
2023-01-11T19:57:20.635Z,64.63
2023-01-11T19:59:48.412Z,65.04
2023-01-11T20:02:18.074Z,64.68
2023-01-11T20:04:45.739Z,64.54
2023-01-11T20:07:13.360Z,64.24
2023-01-11T20:09:40.792Z,64.92
2023-01-11T20:12:09.987Z,64.73
2023-01-11T20:14:38.231Z,64.13
2023-01-11T20:17:05.723Z,64.45
2023-01-11T20:19:33.523Z,64.88
2023-01-11T20:22:00.894Z,65.05
2023-01-11T20:24:29.844Z,64.95
2023-01-11T20:26:59.987Z,64.39
2023-01-11T20:29:27.356Z,64.38
2023-01-11T20:31:54.750Z,64.63
2023-01-11T20:34:22.647Z,65.82
2023-01-11T20:36:50.563Z,64.66
2023-01-11T20:39:17.922Z,64.49
2023-01-11T20:41:51.561Z,64.91
2023-01-11T20:44:24.362Z,64.83
2023-01-11T20:46:52.301Z,65.13
2023-01-11T20:49:19.681Z,65.62
2023-01-11T20:51:47.077Z,65.22
2023-01-11T20:54:14.850Z,65.57
2023-01-11T20:56:42.460Z,65.11
2023-01-11T21:01:37.661Z,65.65
2023-01-11T21:04:09.014Z,65.54
2023-01-11T21:06:38.027Z,65.89
2023-01-11T21:09:06.232Z,65.20
2023-01-11T21:11:33.772Z,64.98
2023-01-11T21:14:01.601Z,65.21
2023-01-11T21:16:29.491Z,65.40
2023-01-11T21:18:58.478Z,65.33
2023-01-11T21:21:26.019Z,65.25
2023-01-11T21:23:54.536Z,65.80
2023-01-11T21:26:22.053Z,65.33
2023-01-11T21:28:54.132Z,63.97
2023-01-11T21:31:21.902Z,65.49
2023-01-11T21:33:49.540Z,66.07
2023-01-11T21:36:18.715Z,65.25
2023-01-11T21:38:46.412Z,65.08
2023-01-11T21:41:15.499Z,65.42
2023-01-11T21:43:43.041Z,65.76
2023-01-11T21:46:10.993Z,66.14
2023-01-11T21:48:38.633Z,65.70
2023-01-11T21:51:11.554Z,65.46
2023-01-11T21:53:39.143Z,65.61
2023-01-11T21:56:07.391Z,65.81
2023-01-11T21:58:35.012Z,66.11
2023-01-11T22:01:12.379Z,66.01
2023-01-11T22:03:43.051Z,65.77
2023-01-11T22:06:10.534Z,65.99
2023-01-11T22:08:38.534Z,65.63
2023-01-11T22:11:06.513Z,65.78
2023-01-11T22:13:34.701Z,65.84
2023-01-11T22:16:10.695Z,65.66
2023-01-11T22:18:38.376Z,66.02
2023-01-11T22:21:24.199Z,66.15
2023-01-11T22:23:58.493Z,65.48
2023-01-11T22:26:26.486Z,65.63
2023-01-11T22:29:13.804Z,65.42
2023-01-11T22:31:52.634Z,65.58
2023-01-11T22:34:20.354Z,65.59
2023-01-11T22:36:47.809Z,65.61
2023-01-11T22:39:15.771Z,65.39
2023-01-11T22:41:46.018Z,65.43
2023-01-11T22:44:13.574Z,65.89
2023-01-11T22:46:41.063Z,65.70
2023-01-11T22:49:08.794Z,64.11
2023-01-11T22:51:36.144Z,64.94
2023-01-11T22:54:03.752Z,65.19
2023-01-11T22:56:31.792Z,65.03
2023-01-11T22:58:59.169Z,65.22
2023-01-11T23:01:28.350Z,65.38
2023-01-11T23:03:56.841Z,65.32
2023-01-11T23:06:26.166Z,65.57
2023-01-11T23:08:53.880Z,65.74
2023-01-11T23:11:42.320Z,65.47
2023-01-11T23:14:11.566Z,65.19
2023-01-11T23:16:39.356Z,65.22
2023-01-11T23:19:07.158Z,65.62
2023-01-11T23:21:35.120Z,65.07
2023-01-11T23:24:02.854Z,64.73
2023-01-11T23:26:30.394Z,63.55
2023-01-11T23:28:57.790Z,64.19
2023-01-11T23:31:25.901Z,64.45
2023-01-11T23:33:54.736Z,64.22
2023-01-11T23:36:23.269Z,64.16
2023-01-11T23:38:50.989Z,64.37
2023-01-11T23:41:38.212Z,64.64
2023-01-11T23:44:09.910Z,64.00
2023-01-11T23:46:56.521Z,64.10
2023-01-11T23:49:27.301Z,63.97
2023-01-11T23:51:54.852Z,64.09
2023-01-11T23:54:22.423Z,64.06
2023-01-11T23:56:50.012Z,63.73
2023-01-11T23:59:17.371Z,63.68
